sensor_id;sensor_type;location;lat;lon;timestamp;P1;durP1;ratioP1;P2;durP2;ratioP2
5458;SDS011;2752;49.992;8.422;2023-04-07T00:00:20;32.27;;;16.07;;
5458;SDS011;2752;49.992;8.422;2023-04-07T00:02:48;31.60;;;15.97;;
5458;SDS011;2752;49.992;8.422;2023-04-07T00:05:15;36.20;;;15.30;;
5458;SDS011;2752;49.992;8.422;2023-04-07T00:07:42;37.57;;;17.00;;
5458;SDS011;2752;49.992;8.422;2023-04-07T00:10:09;33.60;;;16.33;;
5458;SDS011;2752;49.992;8.422;2023-04-07T00:12:36;35.73;;;15.17;;
5458;SDS011;2752;49.992;8.422;2023-04-07T00:15:02;30.90;;;14.70;;
5458;SDS011;2752;49.992;8.422;2023-04-07T00:17:30;33.70;;;15.43;;
5458;SDS011;2752;49.992;8.422;2023-04-07T00:19:58;31.07;;;16.10;;
5458;SDS011;2752;49.992;8.422;2023-04-07T00:22:24;35.43;;;17.07;;
5458;SDS011;2752;49.992;8.422;2023-04-07T00:24:51;34.20;;;17.40;;
5458;SDS011;2752;49.992;8.422;2023-04-07T00:27:18;27.83;;;15.80;;
5458;SDS011;2752;49.992;8.422;2023-04-07T00:29:45;32.77;;;16.37;;
5458;SDS011;2752;49.992;8.422;2023-04-07T00:32:11;34.13;;;16.67;;
5458;SDS011;2752;49.992;8.422;2023-04-07T00:34:38;39.10;;;17.10;;
5458;SDS011;2752;49.992;8.422;2023-04-07T00:37:06;30.73;;;16.13;;
5458;SDS011;2752;49.992;8.422;2023-04-07T00:39:32;36.40;;;18.57;;
5458;SDS011;2752;49.992;8.422;2023-04-07T00:41:59;38.40;;;17.43;;
5458;SDS011;2752;49.992;8.422;2023-04-07T00:44:26;35.13;;;17.33;;
5458;SDS011;2752;49.992;8.422;2023-04-07T00:46:52;36.60;;;17.40;;
5458;SDS011;2752;49.992;8.422;2023-04-07T00:49:19;38.13;;;17.90;;
5458;SDS011;2752;49.992;8.422;2023-04-07T00:51:46;33.50;;;17.43;;
5458;SDS011;2752;49.992;8.422;2023-04-07T00:54:14;40.30;;;16.50;;
5458;SDS011;2752;49.992;8.422;2023-04-07T00:56:41;31.10;;;15.33;;
5458;SDS011;2752;49.992;8.422;2023-04-07T00:59:07;35.73;;;17.43;;
5458;SDS011;2752;49.992;8.422;2023-04-07T01:01:34;37.83;;;17.43;;
5458;SDS011;2752;49.992;8.422;2023-04-07T01:04:08;28.17;;;14.80;;
5458;SDS011;2752;49.992;8.422;2023-04-07T01:06:43;35.10;;;17.17;;
5458;SDS011;2752;49.992;8.422;2023-04-07T01:09:18;31.33;;;16.20;;
5458;SDS011;2752;49.992;8.422;2023-04-07T01:11:51;31.83;;;16.13;;
5458;SDS011;2752;49.992;8.422;2023-04-07T01:14:23;33.60;;;16.37;;
5458;SDS011;2752;49.992;8.422;2023-04-07T01:16:50;29.50;;;15.40;;
5458;SDS011;2752;49.992;8.422;2023-04-07T01:19:24;33.03;;;14.77;;
5458;SDS011;2752;49.992;8.422;2023-04-07T01:21:58;31.03;;;15.33;;
5458;SDS011;2752;49.992;8.422;2023-04-07T01:24:33;27.80;;;14.33;;
5458;SDS011;2752;49.992;8.422;2023-04-07T01:27:13;32.70;;;15.57;;
5458;SDS011;2752;49.992;8.422;2023-04-07T01:29:48;33.03;;;15.93;;
5458;SDS011;2752;49.992;8.422;2023-04-07T01:32:17;35.67;;;15.27;;
5458;SDS011;2752;49.992;8.422;2023-04-07T01:34:45;30.43;;;15.80;;
5458;SDS011;2752;49.992;8.422;2023-04-07T01:37:13;27.73;;;14.17;;
5458;SDS011;2752;49.992;8.422;2023-04-07T01:39:42;35.63;;;15.47;;
5458;SDS011;2752;49.992;8.422;2023-04-07T01:42:09;26.30;;;13.73;;
5458;SDS011;2752;49.992;8.422;2023-04-07T01:44:36;29.60;;;14.50;;
5458;SDS011;2752;49.992;8.422;2023-04-07T01:47:05;27.20;;;14.77;;
5458;SDS011;2752;49.992;8.422;2023-04-07T01:49:32;35.40;;;15.83;;
5458;SDS011;2752;49.992;8.422;2023-04-07T01:52:01;30.17;;;14.90;;
5458;SDS011;2752;49.992;8.422;2023-04-07T01:54:29;28.90;;;14.07;;
5458;SDS011;2752;49.992;8.422;2023-04-07T01:56:56;29.53;;;14.73;;
5458;SDS011;2752;49.992;8.422;2023-04-07T01:59:23;34.80;;;16.07;;
5458;SDS011;2752;49.992;8.422;2023-04-07T02:01:50;34.10;;;15.37;;
5458;SDS011;2752;49.992;8.422;2023-04-07T02:04:20;29.50;;;14.83;;
5458;SDS011;2752;49.992;8.422;2023-04-07T02:06:51;31.67;;;14.50;;
5458;SDS011;2752;49.992;8.422;2023-04-07T02:09:20;27.87;;;14.77;;
5458;SDS011;2752;49.992;8.422;2023-04-07T02:11:49;27.90;;;14.87;;
5458;SDS011;2752;49.992;8.422;2023-04-07T02:14:19;27.90;;;14.50;;
5458;SDS011;2752;49.992;8.422;2023-04-07T02:16:48;23.67;;;12.90;;
5458;SDS011;2752;49.992;8.422;2023-04-07T02:19:16;31.20;;;14.60;;
5458;SDS011;2752;49.992;8.422;2023-04-07T02:21:44;34.20;;;13.90;;
5458;SDS011;2752;49.992;8.422;2023-04-07T02:24:12;30.90;;;14.10;;
5458;SDS011;2752;49.992;8.422;2023-04-07T02:26:38;30.03;;;14.60;;
5458;SDS011;2752;49.992;8.422;2023-04-07T02:29:05;30.90;;;13.30;;
5458;SDS011;2752;49.992;8.422;2023-04-07T02:31:32;25.70;;;14.23;;
5458;SDS011;2752;49.992;8.422;2023-04-07T02:33:59;24.93;;;12.93;;
5458;SDS011;2752;49.992;8.422;2023-04-07T02:36:25;25.30;;;12.80;;
5458;SDS011;2752;49.992;8.422;2023-04-07T02:38:53;25.67;;;13.23;;
5458;SDS011;2752;49.992;8.422;2023-04-07T02:41:20;27.17;;;12.80;;
5458;SDS011;2752;49.992;8.422;2023-04-07T02:43:47;26.57;;;13.47;;
5458;SDS011;2752;49.992;8.422;2023-04-07T02:46:13;27.17;;;12.40;;
5458;SDS011;2752;49.992;8.422;2023-04-07T02:48:40;25.87;;;13.67;;
5458;SDS011;2752;49.992;8.422;2023-04-07T02:51:07;27.43;;;12.83;;
5458;SDS011;2752;49.992;8.422;2023-04-07T02:53:33;29.80;;;13.73;;
5458;SDS011;2752;49.992;8.422;2023-04-07T02:56:01;31.13;;;13.77;;
5458;SDS011;2752;49.992;8.422;2023-04-07T02:58:28;22.67;;;12.93;;
5458;SDS011;2752;49.992;8.422;2023-04-07T03:00:55;26.63;;;12.30;;
5458;SDS011;2752;49.992;8.422;2023-04-07T03:03:21;24.23;;;12.73;;
5458;SDS011;2752;49.992;8.422;2023-04-07T03:05:48;27.87;;;12.30;;
5458;SDS011;2752;49.992;8.422;2023-04-07T03:08:15;24.30;;;12.80;;
5458;SDS011;2752;49.992;8.422;2023-04-07T03:10:42;27.30;;;12.57;;
5458;SDS011;2752;49.992;8.422;2023-04-07T03:13:10;22.70;;;12.20;;
5458;SDS011;2752;49.992;8.422;2023-04-07T03:15:40;26.70;;;12.90;;
5458;SDS011;2752;49.992;8.422;2023-04-07T03:18:06;27.63;;;13.83;;
5458;SDS011;2752;49.992;8.422;2023-04-07T03:20:33;22.07;;;11.40;;
5458;SDS011;2752;49.992;8.422;2023-04-07T03:23:00;22.80;;;12.13;;
5458;SDS011;2752;49.992;8.422;2023-04-07T03:25:27;26.73;;;12.87;;
5458;SDS011;2752;49.992;8.422;2023-04-07T03:27:53;22.63;;;12.30;;
5458;SDS011;2752;49.992;8.422;2023-04-07T03:30:21;23.93;;;11.40;;
5458;SDS011;2752;49.992;8.422;2023-04-07T03:32:48;22.80;;;12.43;;
5458;SDS011;2752;49.992;8.422;2023-04-07T03:35:15;21.57;;;12.40;;
5458;SDS011;2752;49.992;8.422;2023-04-07T03:37:41;24.33;;;12.93;;
5458;SDS011;2752;49.992;8.422;2023-04-07T03:40:08;30.00;;;12.60;;
5458;SDS011;2752;49.992;8.422;2023-04-07T03:42:36;22.37;;;12.63;;
5458;SDS011;2752;49.992;8.422;2023-04-07T03:45:03;25.40;;;13.03;;
5458;SDS011;2752;49.992;8.422;2023-04-07T03:47:31;22.73;;;11.87;;
5458;SDS011;2752;49.992;8.422;2023-04-07T03:49:58;21.80;;;12.83;;
5458;SDS011;2752;49.992;8.422;2023-04-07T03:52:25;25.87;;;12.90;;
5458;SDS011;2752;49.992;8.422;2023-04-07T03:54:51;25.70;;;13.17;;
5458;SDS011;2752;49.992;8.422;2023-04-07T03:57:18;27.80;;;13.87;;
5458;SDS011;2752;49.992;8.422;2023-04-07T03:59:45;22.10;;;11.97;;
5458;SDS011;2752;49.992;8.422;2023-04-07T04:02:15;43.07;;;13.03;;
5458;SDS011;2752;49.992;8.422;2023-04-07T04:04:43;24.40;;;12.73;;
5458;SDS011;2752;49.992;8.422;2023-04-07T04:07:09;28.23;;;12.90;;
5458;SDS011;2752;49.992;8.422;2023-04-07T04:09:36;25.33;;;13.03;;
5458;SDS011;2752;49.992;8.422;2023-04-07T04:12:03;26.53;;;12.67;;
5458;SDS011;2752;49.992;8.422;2023-04-07T04:14:30;23.87;;;12.50;;
5458;SDS011;2752;49.992;8.422;2023-04-07T04:16:56;30.57;;;13.50;;
5458;SDS011;2752;49.992;8.422;2023-04-07T04:19:23;25.00;;;13.77;;
5458;SDS011;2752;49.992;8.422;2023-04-07T04:21:51;22.67;;;12.27;;
5458;SDS011;2752;49.992;8.422;2023-04-07T04:24:18;23.57;;;11.87;;
5458;SDS011;2752;49.992;8.422;2023-04-07T04:26:44;25.67;;;13.83;;
5458;SDS011;2752;49.992;8.422;2023-04-07T04:29:11;23.37;;;12.23;;
5458;SDS011;2752;49.992;8.422;2023-04-07T04:31:38;22.47;;;12.63;;
5458;SDS011;2752;49.992;8.422;2023-04-07T04:34:04;29.63;;;13.97;;
5458;SDS011;2752;49.992;8.422;2023-04-07T04:36:31;27.20;;;12.87;;
5458;SDS011;2752;49.992;8.422;2023-04-07T04:38:59;24.40;;;12.60;;
5458;SDS011;2752;49.992;8.422;2023-04-07T04:41:26;23.43;;;12.20;;
5458;SDS011;2752;49.992;8.422;2023-04-07T04:43:52;21.93;;;11.50;;
5458;SDS011;2752;49.992;8.422;2023-04-07T04:46:19;20.03;;;11.30;;
5458;SDS011;2752;49.992;8.422;2023-04-07T04:48:46;25.20;;;12.63;;
5458;SDS011;2752;49.992;8.422;2023-04-07T04:51:12;26.23;;;13.17;;
5458;SDS011;2752;49.992;8.422;2023-04-07T04:53:39;29.20;;;12.70;;
5458;SDS011;2752;49.992;8.422;2023-04-07T04:56:07;24.77;;;13.40;;
5458;SDS011;2752;49.992;8.422;2023-04-07T04:58:34;21.80;;;12.23;;
5458;SDS011;2752;49.992;8.422;2023-04-07T05:01:00;28.10;;;13.60;;
5458;SDS011;2752;49.992;8.422;2023-04-07T05:03:27;27.70;;;14.60;;
5458;SDS011;2752;49.992;8.422;2023-04-07T05:05:54;25.90;;;13.83;;
5458;SDS011;2752;49.992;8.422;2023-04-07T05:08:21;35.93;;;13.90;;
5458;SDS011;2752;49.992;8.422;2023-04-07T05:10:47;31.63;;;13.93;;
5458;SDS011;2752;49.992;8.422;2023-04-07T05:13:15;34.80;;;13.33;;
5458;SDS011;2752;49.992;8.422;2023-04-07T05:15:42;26.20;;;13.37;;
5458;SDS011;2752;49.992;8.422;2023-04-07T05:18:09;32.17;;;17.20;;
5458;SDS011;2752;49.992;8.422;2023-04-07T05:20:35;27.93;;;12.93;;
5458;SDS011;2752;49.992;8.422;2023-04-07T05:23:02;23.07;;;13.30;;
5458;SDS011;2752;49.992;8.422;2023-04-07T05:25:29;27.07;;;13.73;;
5458;SDS011;2752;49.992;8.422;2023-04-07T05:27:56;26.03;;;14.60;;
5458;SDS011;2752;49.992;8.422;2023-04-07T05:30:24;30.03;;;13.43;;
5458;SDS011;2752;49.992;8.422;2023-04-07T05:32:51;25.53;;;12.80;;
5458;SDS011;2752;49.992;8.422;2023-04-07T05:35:18;27.63;;;12.13;;
5458;SDS011;2752;49.992;8.422;2023-04-07T05:37:45;24.70;;;13.03;;
5458;SDS011;2752;49.992;8.422;2023-04-07T05:40:11;31.27;;;14.63;;
5458;SDS011;2752;49.992;8.422;2023-04-07T05:42:38;28.50;;;14.70;;
5458;SDS011;2752;49.992;8.422;2023-04-07T05:45:05;27.30;;;14.40;;
5458;SDS011;2752;49.992;8.422;2023-04-07T05:47:34;32.13;;;14.37;;
5458;SDS011;2752;49.992;8.422;2023-04-07T05:50:01;25.40;;;13.43;;
5458;SDS011;2752;49.992;8.422;2023-04-07T05:52:27;25.93;;;13.80;;
5458;SDS011;2752;49.992;8.422;2023-04-07T05:54:54;24.20;;;12.83;;
5458;SDS011;2752;49.992;8.422;2023-04-07T05:57:21;25.23;;;13.33;;
5458;SDS011;2752;49.992;8.422;2023-04-07T05:59:48;29.10;;;14.87;;
5458;SDS011;2752;49.992;8.422;2023-04-07T06:02:14;27.77;;;14.03;;
5458;SDS011;2752;49.992;8.422;2023-04-07T06:04:42;28.37;;;13.63;;
5458;SDS011;2752;49.992;8.422;2023-04-07T06:07:09;33.13;;;16.03;;
5458;SDS011;2752;49.992;8.422;2023-04-07T06:09:36;28.07;;;15.33;;
5458;SDS011;2752;49.992;8.422;2023-04-07T06:12:02;27.90;;;15.03;;
5458;SDS011;2752;49.992;8.422;2023-04-07T06:14:30;26.40;;;14.90;;
5458;SDS011;2752;49.992;8.422;2023-04-07T06:16:57;27.50;;;14.23;;
5458;SDS011;2752;49.992;8.422;2023-04-07T06:19:24;25.53;;;14.50;;
5458;SDS011;2752;49.992;8.422;2023-04-07T06:21:52;28.70;;;15.00;;
5458;SDS011;2752;49.992;8.422;2023-04-07T06:24:19;26.50;;;14.97;;
5458;SDS011;2752;49.992;8.422;2023-04-07T06:26:46;31.40;;;14.77;;
5458;SDS011;2752;49.992;8.422;2023-04-07T06:29:13;28.23;;;15.47;;
5458;SDS011;2752;49.992;8.422;2023-04-07T06:31:40;27.40;;;14.90;;
5458;SDS011;2752;49.992;8.422;2023-04-07T06:34:07;26.93;;;15.40;;
5458;SDS011;2752;49.992;8.422;2023-04-07T06:36:33;37.10;;;16.73;;
5458;SDS011;2752;49.992;8.422;2023-04-07T06:39:01;34.93;;;15.57;;
5458;SDS011;2752;49.992;8.422;2023-04-07T06:41:29;27.50;;;15.30;;
5458;SDS011;2752;49.992;8.422;2023-04-07T06:43:56;29.90;;;15.07;;
5458;SDS011;2752;49.992;8.422;2023-04-07T06:46:23;34.07;;;14.70;;
5458;SDS011;2752;49.992;8.422;2023-04-07T06:48:50;33.20;;;14.70;;
5458;SDS011;2752;49.992;8.422;2023-04-07T06:51:17;30.63;;;15.33;;
5458;SDS011;2752;49.992;8.422;2023-04-07T06:53:43;34.60;;;16.80;;
5458;SDS011;2752;49.992;8.422;2023-04-07T06:56:13;32.10;;;15.07;;
5458;SDS011;2752;49.992;8.422;2023-04-07T06:58:40;32.37;;;16.40;;
5458;SDS011;2752;49.992;8.422;2023-04-07T07:01:07;33.10;;;15.27;;
5458;SDS011;2752;49.992;8.422;2023-04-07T07:03:33;25.77;;;14.63;;
5458;SDS011;2752;49.992;8.422;2023-04-07T07:06:00;31.20;;;15.63;;
5458;SDS011;2752;49.992;8.422;2023-04-07T07:08:27;32.30;;;16.90;;
5458;SDS011;2752;49.992;8.422;2023-04-07T07:10:54;55.13;;;16.50;;
5458;SDS011;2752;49.992;8.422;2023-04-07T07:13:23;36.83;;;16.47;;
5458;SDS011;2752;49.992;8.422;2023-04-07T07:15:51;30.27;;;15.87;;
5458;SDS011;2752;49.992;8.422;2023-04-07T07:18:18;29.90;;;15.80;;
5458;SDS011;2752;49.992;8.422;2023-04-07T07:20:45;27.70;;;15.90;;
5458;SDS011;2752;49.992;8.422;2023-04-07T07:23:11;30.40;;;16.80;;
5458;SDS011;2752;49.992;8.422;2023-04-07T07:25:38;33.77;;;16.37;;
5458;SDS011;2752;49.992;8.422;2023-04-07T07:28:05;28.10;;;15.87;;
5458;SDS011;2752;49.992;8.422;2023-04-07T07:30:34;27.30;;;15.10;;
5458;SDS011;2752;49.992;8.422;2023-04-07T07:33:01;31.83;;;16.37;;
5458;SDS011;2752;49.992;8.422;2023-04-07T07:35:27;36.37;;;18.00;;
5458;SDS011;2752;49.992;8.422;2023-04-07T07:37:56;30.33;;;14.83;;
5458;SDS011;2752;49.992;8.422;2023-04-07T07:40:23;29.27;;;15.83;;
5458;SDS011;2752;49.992;8.422;2023-04-07T07:42:50;31.97;;;14.43;;
5458;SDS011;2752;49.992;8.422;2023-04-07T07:45:16;32.07;;;16.60;;
5458;SDS011;2752;49.992;8.422;2023-04-07T07:47:45;35.63;;;16.50;;
5458;SDS011;2752;49.992;8.422;2023-04-07T07:50:11;36.50;;;17.73;;
5458;SDS011;2752;49.992;8.422;2023-04-07T07:52:38;32.60;;;16.80;;
5458;SDS011;2752;49.992;8.422;2023-04-07T07:55:05;30.73;;;16.50;;
5458;SDS011;2752;49.992;8.422;2023-04-07T07:57:32;30.87;;;15.53;;
5458;SDS011;2752;49.992;8.422;2023-04-07T08:00:00;32.13;;;15.30;;
5458;SDS011;2752;49.992;8.422;2023-04-07T08:02:27;28.00;;;15.50;;
5458;SDS011;2752;49.992;8.422;2023-04-07T08:04:57;30.23;;;15.40;;
5458;SDS011;2752;49.992;8.422;2023-04-07T08:07:23;27.07;;;15.10;;
5458;SDS011;2752;49.992;8.422;2023-04-07T08:09:51;26.03;;;14.73;;
5458;SDS011;2752;49.992;8.422;2023-04-07T08:12:18;27.70;;;16.00;;
5458;SDS011;2752;49.992;8.422;2023-04-07T08:14:44;28.70;;;14.90;;
5458;SDS011;2752;49.992;8.422;2023-04-07T08:17:11;32.67;;;17.20;;
5458;SDS011;2752;49.992;8.422;2023-04-07T08:19:38;27.03;;;15.30;;
5458;SDS011;2752;49.992;8.422;2023-04-07T08:22:06;32.80;;;17.13;;
5458;SDS011;2752;49.992;8.422;2023-04-07T08:24:32;35.47;;;17.70;;
5458;SDS011;2752;49.992;8.422;2023-04-07T08:26:59;34.53;;;16.93;;
5458;SDS011;2752;49.992;8.422;2023-04-07T08:29:26;29.00;;;15.20;;
5458;SDS011;2752;49.992;8.422;2023-04-07T08:31:53;27.03;;;15.07;;
5458;SDS011;2752;49.992;8.422;2023-04-07T08:34:19;30.50;;;15.40;;
5458;SDS011;2752;49.992;8.422;2023-04-07T08:36:46;27.60;;;16.23;;
5458;SDS011;2752;49.992;8.422;2023-04-07T08:39:14;28.43;;;16.07;;
5458;SDS011;2752;49.992;8.422;2023-04-07T08:41:41;25.50;;;14.93;;
5458;SDS011;2752;49.992;8.422;2023-04-07T08:44:08;29.30;;;14.87;;
5458;SDS011;2752;49.992;8.422;2023-04-07T08:46:36;31.30;;;16.10;;
5458;SDS011;2752;49.992;8.422;2023-04-07T08:49:06;28.73;;;13.80;;
5458;SDS011;2752;49.992;8.422;2023-04-07T08:51:34;27.27;;;15.20;;
5458;SDS011;2752;49.992;8.422;2023-04-07T08:54:04;34.70;;;14.30;;
5458;SDS011;2752;49.992;8.422;2023-04-07T08:56:35;24.03;;;14.93;;
5458;SDS011;2752;49.992;8.422;2023-04-07T08:59:04;25.80;;;14.43;;
5458;SDS011;2752;49.992;8.422;2023-04-07T09:01:32;30.63;;;15.60;;
5458;SDS011;2752;49.992;8.422;2023-04-07T09:04:00;22.63;;;13.37;;
5458;SDS011;2752;49.992;8.422;2023-04-07T09:06:28;27.83;;;14.13;;
5458;SDS011;2752;49.992;8.422;2023-04-07T09:08:55;23.00;;;13.03;;
5458;SDS011;2752;49.992;8.422;2023-04-07T09:11:22;24.20;;;12.83;;
5458;SDS011;2752;49.992;8.422;2023-04-07T09:13:50;24.53;;;13.77;;
5458;SDS011;2752;49.992;8.422;2023-04-07T09:16:17;22.50;;;13.20;;
5458;SDS011;2752;49.992;8.422;2023-04-07T09:18:44;25.10;;;14.67;;
5458;SDS011;2752;49.992;8.422;2023-04-07T09:21:11;26.37;;;13.10;;
5458;SDS011;2752;49.992;8.422;2023-04-07T09:23:38;29.10;;;15.10;;
5458;SDS011;2752;49.992;8.422;2023-04-07T09:26:18;22.50;;;14.93;;
5458;SDS011;2752;49.992;8.422;2023-04-07T09:28:47;28.93;;;14.80;;
5458;SDS011;2752;49.992;8.422;2023-04-07T09:31:18;27.10;;;13.93;;
5458;SDS011;2752;49.992;8.422;2023-04-07T09:33:46;29.13;;;14.80;;
5458;SDS011;2752;49.992;8.422;2023-04-07T09:36:13;25.47;;;14.83;;
5458;SDS011;2752;49.992;8.422;2023-04-07T09:38:40;33.33;;;17.20;;
5458;SDS011;2752;49.992;8.422;2023-04-07T09:41:08;23.03;;;14.63;;
5458;SDS011;2752;49.992;8.422;2023-04-07T09:43:36;26.33;;;14.73;;
5458;SDS011;2752;49.992;8.422;2023-04-07T09:46:08;25.20;;;15.30;;
5458;SDS011;2752;49.992;8.422;2023-04-07T09:48:36;24.30;;;14.30;;
5458;SDS011;2752;49.992;8.422;2023-04-07T09:51:04;21.33;;;13.30;;
5458;SDS011;2752;49.992;8.422;2023-04-07T09:53:42;22.37;;;13.30;;
5458;SDS011;2752;49.992;8.422;2023-04-07T09:56:10;24.13;;;14.30;;
5458;SDS011;2752;49.992;8.422;2023-04-07T09:58:38;28.23;;;14.87;;
5458;SDS011;2752;49.992;8.422;2023-04-07T10:01:06;25.27;;;13.57;;
5458;SDS011;2752;49.992;8.422;2023-04-07T10:03:33;22.90;;;13.83;;
5458;SDS011;2752;49.992;8.422;2023-04-07T10:06:02;26.63;;;14.10;;
5458;SDS011;2752;49.992;8.422;2023-04-07T10:08:31;21.93;;;13.57;;
5458;SDS011;2752;49.992;8.422;2023-04-07T10:11:00;23.03;;;14.10;;
5458;SDS011;2752;49.992;8.422;2023-04-07T10:13:27;24.03;;;13.67;;
5458;SDS011;2752;49.992;8.422;2023-04-07T10:15:55;27.20;;;14.00;;
5458;SDS011;2752;49.992;8.422;2023-04-07T10:18:24;21.10;;;12.53;;
5458;SDS011;2752;49.992;8.422;2023-04-07T10:20:55;26.13;;;13.30;;
5458;SDS011;2752;49.992;8.422;2023-04-07T10:23:25;25.60;;;14.80;;
5458;SDS011;2752;49.992;8.422;2023-04-07T10:25:59;25.80;;;14.37;;
5458;SDS011;2752;49.992;8.422;2023-04-07T10:28:27;25.87;;;15.10;;
5458;SDS011;2752;49.992;8.422;2023-04-07T10:30:57;24.37;;;14.27;;
5458;SDS011;2752;49.992;8.422;2023-04-07T10:33:43;21.53;;;12.40;;
5458;SDS011;2752;49.992;8.422;2023-04-07T10:36:11;20.60;;;12.23;;
5458;SDS011;2752;49.992;8.422;2023-04-07T10:38:39;20.20;;;12.47;;
5458;SDS011;2752;49.992;8.422;2023-04-07T10:43:59;19.33;;;11.17;;
5458;SDS011;2752;49.992;8.422;2023-04-07T10:46:30;24.23;;;11.43;;
5458;SDS011;2752;49.992;8.422;2023-04-07T10:49:29;20.30;;;12.07;;
5458;SDS011;2752;49.992;8.422;2023-04-07T11:03:54;20.43;;;13.30;;
5458;SDS011;2752;49.992;8.422;2023-04-07T11:06:25;19.90;;;11.33;;
5458;SDS011;2752;49.992;8.422;2023-04-07T11:08:52;23.53;;;12.67;;
5458;SDS011;2752;49.992;8.422;2023-04-07T11:11:33;18.40;;;11.37;;
5458;SDS011;2752;49.992;8.422;2023-04-07T11:14:06;28.53;;;12.00;;
5458;SDS011;2752;49.992;8.422;2023-04-07T11:16:37;20.77;;;13.70;;
5458;SDS011;2752;49.992;8.422;2023-04-07T11:19:07;22.53;;;12.93;;
5458;SDS011;2752;49.992;8.422;2023-04-07T11:21:34;22.03;;;12.50;;
5458;SDS011;2752;49.992;8.422;2023-04-07T11:24:01;24.20;;;12.90;;
5458;SDS011;2752;49.992;8.422;2023-04-07T11:26:28;20.83;;;11.90;;
5458;SDS011;2752;49.992;8.422;2023-04-07T11:29:01;17.27;;;11.40;;
5458;SDS011;2752;49.992;8.422;2023-04-07T11:31:29;16.97;;;10.27;;
5458;SDS011;2752;49.992;8.422;2023-04-07T11:33:57;18.67;;;11.30;;
5458;SDS011;2752;49.992;8.422;2023-04-07T11:36:25;18.73;;;11.03;;
5458;SDS011;2752;49.992;8.422;2023-04-07T11:38:52;22.40;;;12.47;;
5458;SDS011;2752;49.992;8.422;2023-04-07T11:41:19;19.73;;;10.20;;
5458;SDS011;2752;49.992;8.422;2023-04-07T11:43:46;16.00;;;10.20;;
5458;SDS011;2752;49.992;8.422;2023-04-07T11:46:13;14.60;;;10.00;;
5458;SDS011;2752;49.992;8.422;2023-04-07T11:48:42;17.20;;;10.37;;
5458;SDS011;2752;49.992;8.422;2023-04-07T11:51:14;15.80;;;8.60;;
5458;SDS011;2752;49.992;8.422;2023-04-07T11:53:41;14.97;;;8.07;;
5458;SDS011;2752;49.992;8.422;2023-04-07T11:56:09;13.17;;;8.27;;
5458;SDS011;2752;49.992;8.422;2023-04-07T11:58:45;13.33;;;8.20;;
5458;SDS011;2752;49.992;8.422;2023-04-07T12:01:12;12.47;;;7.47;;
5458;SDS011;2752;49.992;8.422;2023-04-07T12:03:53;10.60;;;7.97;;
5458;SDS011;2752;49.992;8.422;2023-04-07T12:06:26;13.40;;;7.27;;
5458;SDS011;2752;49.992;8.422;2023-04-07T12:08:54;15.23;;;8.43;;
5458;SDS011;2752;49.992;8.422;2023-04-07T12:11:21;16.00;;;9.50;;
5458;SDS011;2752;49.992;8.422;2023-04-07T12:13:49;13.53;;;8.67;;
5458;SDS011;2752;49.992;8.422;2023-04-07T12:16:15;14.17;;;9.03;;
5458;SDS011;2752;49.992;8.422;2023-04-07T12:18:43;15.20;;;8.30;;
5458;SDS011;2752;49.992;8.422;2023-04-07T12:21:11;12.73;;;7.97;;
5458;SDS011;2752;49.992;8.422;2023-04-07T12:23:37;18.03;;;8.80;;
5458;SDS011;2752;49.992;8.422;2023-04-07T12:26:05;16.80;;;10.43;;
5458;SDS011;2752;49.992;8.422;2023-04-07T12:28:31;13.60;;;8.43;;
5458;SDS011;2752;49.992;8.422;2023-04-07T12:30:58;13.30;;;7.30;;
5458;SDS011;2752;49.992;8.422;2023-04-07T12:33:25;9.90;;;6.07;;
5458;SDS011;2752;49.992;8.422;2023-04-07T12:35:51;11.00;;;6.77;;
5458;SDS011;2752;49.992;8.422;2023-04-07T12:38:20;11.37;;;6.37;;
5458;SDS011;2752;49.992;8.422;2023-04-07T12:40:46;10.90;;;7.50;;
5458;SDS011;2752;49.992;8.422;2023-04-07T12:43:13;9.23;;;5.70;;
5458;SDS011;2752;49.992;8.422;2023-04-07T12:45:40;12.00;;;7.37;;
5458;SDS011;2752;49.992;8.422;2023-04-07T12:48:06;11.97;;;7.37;;
5458;SDS011;2752;49.992;8.422;2023-04-07T12:50:33;12.20;;;8.67;;
5458;SDS011;2752;49.992;8.422;2023-04-07T12:53:00;11.83;;;7.80;;
5458;SDS011;2752;49.992;8.422;2023-04-07T12:55:30;17.83;;;8.77;;
5458;SDS011;2752;49.992;8.422;2023-04-07T12:57:59;15.60;;;9.07;;
5458;SDS011;2752;49.992;8.422;2023-04-07T13:00:26;17.27;;;9.30;;
5458;SDS011;2752;49.992;8.422;2023-04-07T13:02:52;15.90;;;8.83;;
5458;SDS011;2752;49.992;8.422;2023-04-07T13:05:19;15.93;;;8.93;;
5458;SDS011;2752;49.992;8.422;2023-04-07T13:07:46;13.73;;;8.87;;
5458;SDS011;2752;49.992;8.422;2023-04-07T13:10:12;12.33;;;7.43;;
5458;SDS011;2752;49.992;8.422;2023-04-07T13:12:40;15.10;;;8.93;;
5458;SDS011;2752;49.992;8.422;2023-04-07T13:15:07;13.67;;;9.13;;
5458;SDS011;2752;49.992;8.422;2023-04-07T13:17:34;13.40;;;7.73;;
5458;SDS011;2752;49.992;8.422;2023-04-07T13:20:02;10.60;;;7.40;;
5458;SDS011;2752;49.992;8.422;2023-04-07T13:22:29;11.30;;;7.00;;
5458;SDS011;2752;49.992;8.422;2023-04-07T13:24:56;10.80;;;7.13;;
5458;SDS011;2752;49.992;8.422;2023-04-07T13:27:23;13.20;;;7.70;;
5458;SDS011;2752;49.992;8.422;2023-04-07T13:29:51;12.53;;;7.00;;
5458;SDS011;2752;49.992;8.422;2023-04-07T13:32:17;10.47;;;6.03;;
5458;SDS011;2752;49.992;8.422;2023-04-07T13:34:44;9.07;;;6.90;;
5458;SDS011;2752;49.992;8.422;2023-04-07T13:37:11;11.60;;;6.70;;
5458;SDS011;2752;49.992;8.422;2023-04-07T13:39:37;9.93;;;5.93;;
5458;SDS011;2752;49.992;8.422;2023-04-07T13:42:04;10.03;;;6.50;;
5458;SDS011;2752;49.992;8.422;2023-04-07T13:44:33;8.80;;;5.80;;
5458;SDS011;2752;49.992;8.422;2023-04-07T13:47:02;9.50;;;5.87;;
5458;SDS011;2752;49.992;8.422;2023-04-07T13:49:29;11.10;;;6.70;;
5458;SDS011;2752;49.992;8.422;2023-04-07T13:51:55;13.00;;;5.63;;
5458;SDS011;2752;49.992;8.422;2023-04-07T13:54:22;8.13;;;6.20;;
5458;SDS011;2752;49.992;8.422;2023-04-07T13:56:49;9.50;;;6.00;;
5458;SDS011;2752;49.992;8.422;2023-04-07T13:59:16;12.00;;;6.63;;
5458;SDS011;2752;49.992;8.422;2023-04-07T14:01:43;10.80;;;6.23;;
5458;SDS011;2752;49.992;8.422;2023-04-07T14:04:11;10.00;;;6.40;;
5458;SDS011;2752;49.992;8.422;2023-04-07T14:06:39;13.33;;;6.77;;
5458;SDS011;2752;49.992;8.422;2023-04-07T14:09:06;8.47;;;5.97;;
5458;SDS011;2752;49.992;8.422;2023-04-07T14:11:33;8.43;;;5.70;;
5458;SDS011;2752;49.992;8.422;2023-04-07T14:14:00;8.40;;;4.70;;
5458;SDS011;2752;49.992;8.422;2023-04-07T14:16:26;9.80;;;5.70;;
5458;SDS011;2752;49.992;8.422;2023-04-07T14:18:53;6.67;;;4.57;;
5458;SDS011;2752;49.992;8.422;2023-04-07T14:21:22;5.60;;;4.27;;
5458;SDS011;2752;49.992;8.422;2023-04-07T14:23:51;7.70;;;5.40;;
5458;SDS011;2752;49.992;8.422;2023-04-07T14:26:18;6.10;;;4.40;;
5458;SDS011;2752;49.992;8.422;2023-04-07T14:28:45;8.10;;;5.90;;
5458;SDS011;2752;49.992;8.422;2023-04-07T14:31:12;6.80;;;5.07;;
5458;SDS011;2752;49.992;8.422;2023-04-07T14:33:40;9.13;;;4.60;;
5458;SDS011;2752;49.992;8.422;2023-04-07T14:36:07;6.47;;;5.20;;
5458;SDS011;2752;49.992;8.422;2023-04-07T14:38:35;6.50;;;4.20;;
5458;SDS011;2752;49.992;8.422;2023-04-07T14:41:01;7.40;;;4.93;;
5458;SDS011;2752;49.992;8.422;2023-04-07T14:43:28;4.90;;;3.60;;
5458;SDS011;2752;49.992;8.422;2023-04-07T14:45:55;7.67;;;5.10;;
5458;SDS011;2752;49.992;8.422;2023-04-07T14:48:23;6.70;;;4.40;;
5458;SDS011;2752;49.992;8.422;2023-04-07T14:50:50;6.10;;;4.47;;
5458;SDS011;2752;49.992;8.422;2023-04-07T14:53:17;5.70;;;3.80;;
5458;SDS011;2752;49.992;8.422;2023-04-07T14:55:45;4.40;;;3.53;;
5458;SDS011;2752;49.992;8.422;2023-04-07T14:58:12;5.93;;;3.80;;
5458;SDS011;2752;49.992;8.422;2023-04-07T15:00:38;5.60;;;4.07;;
5458;SDS011;2752;49.992;8.422;2023-04-07T15:03:05;5.90;;;3.60;;
5458;SDS011;2752;49.992;8.422;2023-04-07T15:05:31;6.80;;;4.30;;
5458;SDS011;2752;49.992;8.422;2023-04-07T15:07:58;5.90;;;3.67;;
5458;SDS011;2752;49.992;8.422;2023-04-07T15:10:25;6.10;;;3.63;;